createdAt,value
2023-04-11T00:00:09.898Z,83.45
2023-04-11T00:03:17.189Z,83.51
2023-04-11T00:06:19.809Z,84.38
2023-04-11T00:09:22.029Z,83.44
2023-04-11T00:12:24.285Z,83.54
2023-04-11T00:15:27.032Z,84.01
2023-04-11T00:18:29.473Z,83.84
2023-04-11T00:21:31.695Z,82.14
2023-04-11T00:24:33.818Z,81.96
2023-04-11T00:27:35.979Z,81.39
2023-04-11T00:30:38.465Z,81.30
2023-04-11T00:33:41.071Z,81.48
2023-04-11T00:36:43.364Z,81.31
2023-04-11T00:39:46.000Z,82.52
2023-04-11T00:42:48.629Z,82.90
2023-04-11T00:45:52.777Z,82.65
2023-04-11T00:48:55.406Z,82.50
2023-04-11T00:51:58.283Z,83.28
2023-04-11T00:55:02.019Z,83.53
2023-04-11T00:58:04.196Z,83.44
2023-04-11T01:01:09.603Z,84.39
2023-04-11T01:04:12.699Z,83.67
2023-04-11T01:07:16.217Z,83.88
2023-04-11T01:10:19.206Z,83.09
2023-04-11T01:13:21.559Z,82.05
2023-04-11T01:16:24.068Z,82.92
2023-04-11T01:19:29.156Z,81.96
2023-04-11T01:22:31.779Z,82.18
2023-04-11T01:25:34.177Z,82.92
2023-04-11T01:28:36.402Z,82.31
2023-04-11T01:31:39.716Z,83.94
2023-04-11T01:34:42.877Z,84.57
2023-04-11T01:37:45.155Z,83.75
2023-04-11T01:40:47.527Z,85.38
2023-04-11T01:43:50.026Z,85.51
2023-04-11T01:46:52.338Z,85.08
2023-04-11T01:49:56.016Z,83.49
2023-04-11T01:52:59.569Z,84.53
2023-04-11T01:56:02.037Z,84.29
2023-04-11T01:59:04.518Z,84.74
2023-04-11T02:02:06.725Z,87.01
2023-04-11T02:05:09.087Z,84.38
2023-04-11T02:08:11.940Z,84.88
2023-04-11T02:11:14.579Z,85.28
2023-04-11T02:14:18.697Z,84.42
2023-04-11T02:17:22.407Z,84.04
2023-04-11T02:20:25.044Z,84.12
2023-04-11T02:23:27.250Z,84.71
2023-04-11T02:26:29.673Z,85.65
2023-04-11T02:29:31.817Z,84.90
2023-04-11T02:32:35.079Z,84.19
2023-04-11T02:35:37.285Z,84.41
2023-04-11T02:38:39.481Z,83.90
2023-04-11T02:41:42.332Z,83.67
2023-04-11T02:44:44.485Z,83.92
2023-04-11T02:47:46.817Z,82.86
2023-04-11T02:50:49.676Z,84.53
2023-04-11T02:53:52.957Z,84.83
2023-04-11T02:56:56.770Z,84.94
2023-04-11T02:59:59.350Z,85.12
2023-04-11T03:03:12.792Z,86.04
2023-04-11T03:06:18.668Z,88.37
2023-04-11T03:09:26.069Z,86.99
2023-04-11T03:12:28.314Z,85.19
2023-04-11T03:15:35.211Z,85.15
2023-04-11T03:18:42.053Z,87.79
2023-04-11T03:21:47.095Z,88.30
2023-04-11T03:24:49.895Z,87.56
2023-04-11T03:27:55.624Z,86.78
2023-04-11T03:30:58.018Z,85.88
2023-04-11T03:34:01.275Z,87.16
2023-04-11T03:37:03.738Z,86.30
2023-04-11T03:40:08.486Z,85.58
2023-04-11T03:43:13.809Z,86.53
2023-04-11T03:46:16.253Z,86.37
2023-04-11T03:49:21.964Z,86.05
2023-04-11T03:52:29.404Z,87.32
2023-04-11T03:55:31.727Z,86.41
2023-04-11T03:58:36.194Z,87.26
2023-04-11T04:01:39.928Z,86.86
2023-04-11T04:04:46.953Z,85.47
2023-04-11T04:08:02.876Z,84.87
2023-04-11T04:11:31.125Z,84.57
2023-04-11T04:14:33.364Z,83.67
2023-04-11T04:17:36.337Z,84.47
2023-04-11T04:20:43.058Z,84.02
2023-04-11T04:23:47.903Z,85.58
2023-04-11T04:27:04.075Z,84.93
2023-04-11T04:30:19.170Z,84.80
2023-04-11T04:33:42.982Z,84.77
2023-04-11T04:36:56.688Z,83.78
2023-04-11T04:40:13.333Z,82.05
2023-04-11T04:43:41.974Z,82.27
2023-04-11T04:46:55.652Z,81.43
2023-04-11T04:50:00.887Z,80.00
2023-04-11T04:53:04.219Z,81.16
2023-04-11T04:56:07.230Z,78.11
2023-04-11T04:59:15.962Z,76.17
2023-04-11T05:02:23.348Z,75.75
2023-04-11T05:05:26.112Z,72.81
2023-04-11T05:08:29.171Z,69.07
2023-04-11T05:11:36.142Z,66.57
2023-04-11T05:14:38.801Z,65.66
2023-04-11T05:17:41.340Z,63.46
2023-04-11T05:20:43.441Z,64.94
2023-04-11T05:23:49.330Z,67.63
2023-04-11T05:26:51.579Z,62.39
2023-04-11T05:29:55.438Z,61.61
2023-04-11T05:32:57.884Z,59.63
2023-04-11T05:36:01.236Z,58.90
2023-04-11T05:39:04.386Z,56.33
2023-04-11T05:42:08.011Z,56.80
2023-04-11T05:45:10.821Z,57.07
2023-04-11T05:48:14.872Z,55.20
2023-04-11T05:51:18.189Z,52.41
2023-04-11T05:54:32.020Z,52.90
2023-04-11T05:57:34.241Z,54.63
2023-04-11T06:00:38.317Z,55.74
2023-04-11T06:03:40.687Z,56.13
2023-04-11T06:06:43.618Z,55.27
2023-04-11T06:09:46.268Z,54.46
2023-04-11T06:12:48.484Z,48.90
2023-04-11T06:15:50.755Z,48.53
2023-04-11T06:18:53.225Z,47.34
2023-04-11T06:21:55.748Z,43.88
2023-04-11T06:24:58.249Z,40.44
2023-04-11T06:28:00.348Z,42.52
2023-04-11T06:31:03.382Z,44.79
2023-04-11T06:34:05.623Z,43.14
2023-04-11T06:37:08.098Z,47.26
2023-04-11T06:40:10.499Z,47.57
2023-04-11T06:43:12.568Z,43.49
2023-04-11T06:46:14.648Z,44.37
2023-04-11T06:49:18.797Z,41.86
2023-04-11T06:52:21.392Z,39.70
2023-04-11T06:55:23.504Z,38.86
2023-04-11T06:58:25.937Z,37.02
2023-04-11T07:01:34.091Z,36.38
2023-04-11T07:04:37.089Z,36.46
2023-04-11T07:07:40.255Z,37.22
2023-04-11T07:10:42.755Z,38.15
2023-04-11T07:13:45.064Z,38.07
2023-04-11T07:16:47.390Z,37.19
2023-04-11T07:19:49.572Z,34.90
2023-04-11T07:22:52.451Z,35.78
2023-04-11T07:25:54.820Z,34.50
2023-04-11T07:28:56.894Z,34.62
2023-04-11T07:31:59.243Z,35.70
2023-04-11T07:35:01.461Z,35.50
2023-04-11T07:38:04.392Z,34.38
2023-04-11T07:41:06.745Z,37.85
2023-04-11T07:44:09.746Z,40.01
2023-04-11T07:47:12.094Z,42.23
2023-04-11T07:50:14.464Z,41.18
2023-04-11T07:53:16.835Z,41.90
2023-04-11T07:56:19.008Z,41.28
2023-04-11T07:59:21.126Z,40.69
2023-04-11T08:02:24.832Z,44.08
2023-04-11T08:05:28.063Z,43.93
2023-04-11T08:08:30.448Z,43.08
2023-04-11T08:11:32.565Z,44.89
2023-04-11T08:14:34.941Z,44.59
2023-04-11T08:17:38.639Z,44.11
2023-04-11T08:20:41.017Z,45.57
2023-04-11T08:23:43.113Z,43.07
2023-04-11T08:26:45.298Z,43.60
2023-04-11T08:29:48.460Z,45.85
2023-04-11T08:32:50.878Z,43.90
2023-04-11T08:35:53.356Z,45.78
2023-04-11T08:38:56.843Z,45.70
2023-04-11T08:42:00.748Z,46.57
2023-04-11T08:45:04.607Z,45.20
2023-04-11T08:48:07.283Z,45.38
2023-04-11T08:51:09.447Z,46.89
2023-04-11T08:54:11.643Z,44.91
2023-04-11T08:57:31.772Z,41.02
2023-04-11T09:00:34.215Z,41.74
2023-04-11T09:03:50.676Z,42.85
2023-04-11T09:06:57.466Z,41.49
2023-04-11T09:10:17.939Z,41.00
2023-04-11T09:13:24.629Z,42.16
2023-04-11T09:16:27.241Z,39.96
2023-04-11T09:19:30.685Z,39.93
2023-04-11T09:22:36.485Z,40.64
2023-04-11T09:25:45.311Z,40.60
2023-04-11T09:28:52.792Z,42.90
2023-04-11T09:31:54.989Z,43.35
2023-04-11T09:35:16.053Z,44.37
2023-04-11T09:38:30.169Z,43.29
2023-04-11T09:41:33.350Z,39.90
2023-04-11T09:44:37.614Z,41.65
2023-04-11T09:47:39.771Z,40.39
2023-04-11T09:50:42.396Z,38.50
2023-04-11T09:53:44.525Z,39.90
2023-04-11T09:56:46.704Z,37.53
2023-04-11T09:59:48.980Z,35.42
2023-04-11T10:02:55.367Z,33.67
2023-04-11T10:05:58.047Z,34.81
2023-04-11T10:09:07.295Z,32.18
2023-04-11T10:12:09.462Z,33.04
2023-04-11T10:15:11.935Z,34.44
2023-04-11T10:18:14.152Z,31.14
2023-04-11T10:21:32.941Z,30.39
2023-04-11T10:24:35.336Z,31.04
2023-04-11T10:27:49.993Z,33.61
2023-04-11T10:30:52.109Z,34.03
2023-04-11T10:34:16.151Z,33.82
2023-04-11T10:37:19.298Z,33.82
2023-04-11T10:40:21.520Z,35.81
2023-04-11T10:43:23.690Z,36.69
2023-04-11T10:46:26.044Z,34.68
2023-04-11T10:49:32.825Z,34.97
2023-04-11T10:52:38.843Z,36.95
2023-04-11T10:55:50.763Z,33.79
2023-04-11T10:58:53.465Z,35.75
2023-04-11T11:01:56.143Z,36.06
2023-04-11T11:04:59.755Z,36.28
2023-04-11T11:08:01.964Z,33.60
2023-04-11T11:11:08.126Z,32.34
2023-04-11T11:14:10.393Z,28.71
2023-04-11T11:17:14.126Z,34.24
2023-04-11T11:20:17.157Z,31.79
2023-04-11T11:23:19.244Z,32.21
2023-04-11T11:26:21.523Z,32.49
2023-04-11T11:29:34.580Z,31.11
2023-04-11T11:32:36.719Z,33.54
2023-04-11T11:35:38.850Z,31.82
2023-04-11T11:38:41.006Z,32.69
2023-04-11T11:41:43.523Z,32.41
2023-04-11T11:44:46.036Z,30.62
2023-04-11T11:47:49.573Z,31.40
2023-04-11T11:50:56.657Z,31.84
2023-04-11T11:54:05.669Z,32.10
2023-04-11T11:57:08.174Z,36.52
2023-04-11T12:00:10.908Z,37.89
2023-04-11T12:03:18.236Z,36.44
2023-04-11T12:06:20.919Z,36.75
2023-04-11T12:09:30.094Z,34.91
2023-04-11T12:12:36.910Z,33.44
2023-04-11T12:15:39.859Z,35.19
2023-04-11T12:18:42.842Z,34.53
2023-04-11T12:21:44.910Z,36.17
2023-04-11T12:24:47.103Z,34.83
2023-04-11T12:27:49.239Z,34.90
2023-04-11T12:30:51.376Z,35.64
2023-04-11T12:33:53.528Z,34.89
2023-04-11T12:36:57.994Z,36.23
2023-04-11T12:40:00.801Z,35.30
2023-04-11T12:43:03.394Z,37.80
2023-04-11T12:46:06.538Z,38.59
2023-04-11T12:49:09.010Z,36.20
2023-04-11T12:52:11.519Z,34.76
2023-04-11T12:55:14.010Z,34.43
2023-04-11T12:58:16.846Z,34.88
2023-04-11T13:01:19.079Z,36.85
2023-04-11T13:04:21.513Z,37.41
2023-04-11T13:07:23.963Z,37.61
2023-04-11T13:10:26.270Z,37.85
2023-04-11T13:13:28.319Z,37.74
2023-04-11T13:16:32.215Z,38.88
2023-04-11T13:19:35.117Z,38.61
2023-04-11T13:22:37.657Z,39.43
2023-04-11T13:25:40.483Z,39.88
2023-04-11T13:28:43.116Z,39.86
2023-04-11T13:31:45.407Z,41.41
2023-04-11T13:34:47.691Z,40.79
2023-04-11T13:37:49.851Z,39.35
2023-04-11T13:40:51.931Z,38.37
2023-04-11T13:43:54.383Z,38.05
2023-04-11T13:46:56.706Z,38.78
2023-04-11T13:49:58.813Z,39.58
2023-04-11T13:53:01.380Z,38.78
2023-04-11T13:56:04.049Z,38.05
2023-04-11T13:59:06.122Z,39.02
2023-04-11T14:02:08.419Z,38.73
2023-04-11T14:05:14.215Z,38.58
2023-04-11T14:08:16.400Z,38.97
2023-04-11T14:11:18.840Z,38.88
2023-04-11T14:14:21.202Z,39.36
2023-04-11T14:17:23.318Z,39.61
2023-04-11T14:20:25.974Z,39.21
2023-04-11T14:23:28.583Z,39.25
2023-04-11T14:26:30.941Z,39.45
2023-04-11T14:29:34.625Z,39.92
2023-04-11T14:32:36.813Z,39.60
2023-04-11T14:35:38.929Z,37.26
2023-04-11T14:38:41.171Z,37.92
2023-04-11T14:41:43.424Z,36.78
2023-04-11T14:44:45.754Z,36.42
2023-04-11T14:47:47.985Z,36.57
2023-04-11T14:50:50.094Z,37.42
2023-04-11T14:53:55.142Z,39.20
2023-04-11T14:56:57.841Z,39.04
2023-04-11T15:00:01.777Z,40.13
2023-04-11T15:03:04.284Z,40.52
2023-04-11T15:06:06.817Z,40.91
2023-04-11T15:09:11.092Z,42.34
2023-04-11T15:12:13.242Z,43.56
2023-04-11T15:15:16.054Z,45.07
2023-04-11T15:18:22.730Z,45.69
2023-04-11T15:21:24.867Z,46.46
2023-04-11T15:24:27.265Z,47.75
2023-04-11T15:27:29.377Z,48.19
2023-04-11T15:30:31.470Z,48.83
2023-04-11T15:33:33.777Z,49.86
2023-04-11T15:36:38.845Z,51.20
2023-04-11T15:39:41.095Z,51.97
2023-04-11T15:42:43.250Z,52.46
2023-04-11T15:45:45.501Z,53.75
2023-04-11T15:48:47.656Z,54.76
2023-04-11T15:51:49.746Z,56.20
2023-04-11T15:54:51.829Z,57.49
2023-04-11T15:57:53.964Z,58.93
2023-04-11T16:01:01.061Z,60.66
2023-04-11T16:04:03.556Z,61.92
2023-04-11T16:07:09.493Z,63.56
2023-04-11T16:10:11.762Z,64.83
2023-04-11T16:13:13.865Z,67.39
2023-04-11T16:16:16.559Z,68.51
2023-04-11T16:19:18.763Z,70.92
2023-04-11T16:22:21.181Z,72.29
2023-04-11T16:25:23.384Z,73.36
2023-04-11T16:28:25.669Z,75.35
2023-04-11T16:31:28.144Z,75.50
2023-04-11T16:34:30.314Z,75.53
2023-04-11T16:37:32.493Z,76.90
2023-04-11T16:40:34.993Z,76.80
2023-04-11T16:43:37.111Z,75.78
2023-04-11T16:46:39.589Z,77.15
2023-04-11T16:49:41.861Z,76.67
2023-04-11T16:52:44.095Z,76.62
2023-04-11T16:55:47.105Z,77.07
2023-04-11T16:58:50.201Z,76.60
2023-04-11T17:01:52.363Z,76.73
2023-04-11T17:04:54.689Z,76.83
2023-04-11T17:07:57.508Z,77.40
2023-04-11T17:11:09.287Z,77.46
2023-04-11T17:14:11.520Z,77.59
2023-04-11T17:17:13.774Z,76.79
2023-04-11T17:20:16.373Z,77.47
2023-04-11T17:23:20.581Z,76.24
2023-04-11T17:26:28.425Z,76.89
2023-04-11T17:29:30.453Z,77.59
2023-04-11T17:32:32.693Z,78.15
2023-04-11T17:35:34.829Z,77.55
2023-04-11T17:38:37.537Z,78.05
2023-04-11T17:41:39.680Z,76.76
2023-04-11T17:44:41.924Z,77.08
2023-04-11T17:47:44.061Z,78.06
2023-04-11T17:50:46.302Z,78.00
2023-04-11T17:53:48.359Z,78.77
2023-04-11T17:56:50.728Z,78.14
2023-04-11T17:59:52.777Z,78.32
2023-04-11T18:02:57.837Z,78.71
2023-04-11T18:06:01.073Z,78.04
2023-04-11T18:09:05.319Z,78.50
2023-04-11T18:12:07.498Z,78.68
2023-04-11T18:15:11.759Z,78.33
2023-04-11T18:18:13.805Z,78.86
2023-04-11T18:21:16.520Z,78.92
2023-04-11T18:24:19.748Z,79.37
2023-04-11T18:27:22.017Z,79.35
2023-04-11T18:30:24.301Z,79.93
2023-04-11T18:33:26.887Z,79.98
2023-04-11T18:36:29.184Z,79.86
2023-04-11T18:39:31.718Z,79.66
2023-04-11T18:42:34.040Z,80.19
2023-04-11T18:45:38.977Z,79.87
2023-04-11T18:48:44.814Z,79.22
2023-04-11T18:51:47.006Z,80.20
2023-04-11T18:54:50.279Z,80.60
2023-04-11T18:57:55.885Z,80.14
2023-04-11T19:01:14.846Z,80.64
2023-04-11T19:04:20.760Z,80.50
2023-04-11T19:07:23.449Z,80.77
2023-04-11T19:10:26.406Z,81.18
2023-04-11T19:13:28.840Z,80.92
2023-04-11T19:16:31.505Z,81.24
2023-04-11T19:19:33.861Z,81.35
2023-04-11T19:22:39.881Z,81.25
2023-04-11T19:25:42.889Z,81.40
2023-04-11T19:28:46.473Z,81.60
2023-04-11T19:31:48.776Z,81.37
2023-04-11T19:34:53.239Z,82.12
2023-04-11T19:38:04.766Z,81.78
2023-04-11T19:41:11.793Z,81.82
2023-04-11T19:44:14.363Z,81.32
2023-04-11T19:47:16.743Z,81.32
2023-04-11T19:50:18.893Z,82.05
2023-04-11T19:53:21.421Z,82.19
2023-04-11T19:56:23.922Z,81.94
2023-04-11T19:59:26.060Z,81.51
2023-04-11T20:02:28.230Z,81.51
2023-04-11T20:05:32.059Z,81.52
2023-04-11T20:08:36.607Z,80.75
2023-04-11T20:11:39.099Z,80.83
2023-04-11T20:14:41.171Z,80.49
2023-04-11T20:17:45.867Z,80.38
2023-04-11T20:20:48.449Z,80.50
2023-04-11T20:23:51.716Z,80.67
2023-04-11T20:26:54.125Z,79.90
2023-04-11T20:29:56.871Z,80.41
2023-04-11T20:32:59.096Z,79.68
2023-04-11T20:36:03.289Z,79.99
2023-04-11T20:39:05.475Z,80.50
2023-04-11T20:42:10.794Z,79.47
2023-04-11T20:45:15.684Z,79.22
2023-04-11T20:48:17.895Z,78.99
2023-04-11T20:51:20.052Z,78.82
2023-04-11T20:54:22.638Z,78.83
2023-04-11T20:57:24.758Z,79.17
2023-04-11T21:00:27.070Z,79.42
2023-04-11T21:03:30.296Z,79.48
2023-04-11T21:06:32.608Z,79.06
2023-04-11T21:09:34.684Z,78.97
2023-04-11T21:12:37.101Z,79.18
2023-04-11T21:15:39.197Z,79.09
2023-04-11T21:18:41.425Z,79.07
2023-04-11T21:21:43.508Z,78.84
2023-04-11T21:24:45.602Z,79.26
2023-04-11T21:27:47.872Z,78.88
2023-04-11T21:30:50.003Z,78.77
2023-04-11T21:33:52.058Z,78.48
2023-04-11T21:36:54.158Z,78.72
2023-04-11T21:39:56.236Z,78.83
2023-04-11T21:42:58.319Z,79.17
2023-04-11T21:46:00.536Z,79.07
2023-04-11T21:49:02.653Z,78.83
2023-04-11T21:52:04.677Z,78.91
2023-04-11T21:55:08.860Z,78.44
2023-04-11T21:58:21.960Z,77.96
2023-04-11T22:01:30.494Z,78.04
2023-04-11T22:04:37.248Z,78.00
2023-04-11T22:07:46.345Z,77.46
2023-04-11T22:10:50.826Z,77.30
2023-04-11T22:13:53.175Z,77.35
2023-04-11T22:16:58.544Z,77.96
2023-04-11T22:20:00.699Z,78.15
2023-04-11T22:23:04.140Z,78.98
2023-04-11T22:26:06.390Z,78.82
2023-04-11T22:29:09.117Z,79.00
2023-04-11T22:32:11.683Z,79.51
2023-04-11T22:35:14.291Z,79.11
2023-04-11T22:38:16.874Z,79.53
2023-04-11T22:41:19.062Z,79.60
2023-04-11T22:44:21.103Z,79.54
2023-04-11T22:47:23.223Z,79.43
2023-04-11T22:50:25.302Z,79.23
2023-04-11T22:53:27.916Z,79.47
2023-04-11T22:56:30.019Z,78.99
2023-04-11T22:59:32.414Z,79.18
2023-04-11T23:02:36.017Z,79.58
2023-04-11T23:05:39.659Z,79.37
2023-04-11T23:08:42.231Z,79.25
2023-04-11T23:11:45.320Z,79.47
2023-04-11T23:14:47.440Z,79.30
2023-04-11T23:17:50.187Z,79.02
2023-04-11T23:20:54.460Z,78.60
2023-04-11T23:23:57.329Z,78.93
2023-04-11T23:26:59.584Z,78.32
2023-04-11T23:30:01.927Z,78.68
2023-04-11T23:33:05.955Z,78.67
2023-04-11T23:36:08.575Z,78.86
2023-04-11T23:39:10.678Z,78.69
2023-04-11T23:42:12.976Z,78.72
2023-04-11T23:45:15.189Z,78.92
2023-04-11T23:48:17.309Z,78.84
2023-04-11T23:51:19.408Z,79.39
2023-04-11T23:54:21.514Z,79.02
2023-04-11T23:57:23.911Z,78.85
